Phoenix, AZ

7:26 AM MST on October 31, 2014 (GMT -0700)
Scottsdale | Change Station
CLOSE
Current Station
Airport
Location: Scottsdale,
Elevation: 1509 ft
Nearby Weather Stations

Elev 1509 ft 33.62 °N, 111.91 °W | Updated 33 minutes ago

Partly Cloudy
Partly Cloudy
64 °F
Feels Like 64 °F
N
4
Wind Variable Wind from WNW

Today
High -- | Low -- °F
--% Chance of Precip.
Yesterday
High -- | Low -- °F
Precip. -- in
6:46 AM 5:37 PM
First Quarter, 55% visible
Pressure 29.88 in
Visibility 10.0 miles
Clouds Clear
Dew Point 46 °F
Humidity 52%
Rainfall 0.00 in
Snow Depth Not available.
UV 0 out of 12
Pollen 5.20 out of 12
Air Quality Not available.
Flu Activity Not available.
METAR KSDL 311353Z 29003KT 10SM CLR 18/08 A2993 RMK AO2 SLP116 T01780078

More Conditions Fewer Conditions

Pressure 29.88 in
Visibility 10.0 miles
Clouds Clear
Dew Point 46 °F
Humidity 52%
Rainfall 0.00 in
Snow Depth Not available.
UV 0 out of 12
Pollen 5.20 out of 12
Air Quality Not available.
Flu Activity Not available.
METAR KSDL 311353Z 29003KT 10SM CLR 18/08 A2993 RMK AO2 SLP116 T01780078

More Conditions Fewer Conditions

10-Day Weather Forecast

Almanac

Astronomy

Oct. 31, 2014 Rise Set
Actual Time
Civil Twilight
Nautical Twilight
Astronomical Twilight
Moon
Length of Visible Light
Length of Day
Tomorrow will be .
, % of the Moon is Illuminated

Today's Extremes

State Highs State Lows

Community

WunderPhotos

Upload Photos

1,766,617 photos uploaded!

WunderBlogs® & News

Nearby

Air Quality

  Air Quality AQ Index Pollutant
Not available.

Snow Depth

Station Depth Elevation

Earthquake Activity

City Distance Mag. Time & Date
Minimum magnitude displayed is 2.5.

Coastal Water Temperatures

Place Temperature

Nearby Weather Stations